sensor_id;sensor_type;location;lat;lon;timestamp;P1;durP1;ratioP1;P2;durP2;ratioP2
29574;SDS011;16507;51.046;6.406;2023-05-23T00:00:54;10.32;;;9.05;;
29574;SDS011;16507;51.046;6.406;2023-05-23T00:03:21;14.50;;;10.93;;
29574;SDS011;16507;51.046;6.406;2023-05-23T00:05:47;11.00;;;9.98;;
29574;SDS011;16507;51.046;6.406;2023-05-23T00:08:13;13.65;;;11.20;;
29574;SDS011;16507;51.046;6.406;2023-05-23T00:10:38;12.35;;;10.75;;
29574;SDS011;16507;51.046;6.406;2023-05-23T00:13:04;12.75;;;11.55;;
29574;SDS011;16507;51.046;6.406;2023-05-23T00:15:33;14.43;;;11.02;;
29574;SDS011;16507;51.046;6.406;2023-05-23T00:18:01;14.95;;;12.85;;
29574;SDS011;16507;51.046;6.406;2023-05-23T00:20:26;15.40;;;13.07;;
29574;SDS011;16507;51.046;6.406;2023-05-23T00:22:53;15.82;;;13.25;;
29574;SDS011;16507;51.046;6.406;2023-05-23T00:25:22;15.68;;;13.43;;
29574;SDS011;16507;51.046;6.406;2023-05-23T00:27:48;17.98;;;13.88;;
29574;SDS011;16507;51.046;6.406;2023-05-23T00:30:14;16.60;;;12.75;;
29574;SDS011;16507;51.046;6.406;2023-05-23T00:32:40;18.77;;;13.70;;
29574;SDS011;16507;51.046;6.406;2023-05-23T00:35:06;16.27;;;13.63;;
29574;SDS011;16507;51.046;6.406;2023-05-23T00:37:32;15.60;;;13.40;;
29574;SDS011;16507;51.046;6.406;2023-05-23T00:39:58;17.25;;;13.43;;
29574;SDS011;16507;51.046;6.406;2023-05-23T00:42:24;17.58;;;13.73;;
29574;SDS011;16507;51.046;6.406;2023-05-23T00:44:50;18.98;;;13.25;;
29574;SDS011;16507;51.046;6.406;2023-05-23T00:47:18;15.55;;;13.15;;
29574;SDS011;16507;51.046;6.406;2023-05-23T00:49:44;17.55;;;13.68;;
29574;SDS011;16507;51.046;6.406;2023-05-23T00:52:09;17.10;;;13.27;;
29574;SDS011;16507;51.046;6.406;2023-05-23T00:54:36;17.20;;;14.20;;
29574;SDS011;16507;51.046;6.406;2023-05-23T00:57:03;15.45;;;13.52;;
29574;SDS011;16507;51.046;6.406;2023-05-23T00:59:29;21.15;;;15.30;;
29574;SDS011;16507;51.046;6.406;2023-05-23T01:01:56;16.80;;;15.07;;
29574;SDS011;16507;51.046;6.406;2023-05-23T01:04:24;21.02;;;16.10;;
29574;SDS011;16507;51.046;6.406;2023-05-23T01:06:51;18.30;;;13.23;;
29574;SDS011;16507;51.046;6.406;2023-05-23T01:09:20;13.77;;;11.98;;
29574;SDS011;16507;51.046;6.406;2023-05-23T01:14:48;14.48;;;11.73;;
29574;SDS011;16507;51.046;6.406;2023-05-23T01:17:28;11.40;;;10.25;;
29574;SDS011;16507;51.046;6.406;2023-05-23T01:20:10;11.70;;;10.05;;
29574;SDS011;16507;51.046;6.406;2023-05-23T01:27:53;7.60;;;7.00;;
29574;SDS011;16507;51.046;6.406;2023-05-23T01:30:22;8.45;;;7.70;;
29574;SDS011;16507;51.046;6.406;2023-05-23T01:32:52;7.45;;;6.85;;
29574;SDS011;16507;51.046;6.406;2023-05-23T01:35:21;7.45;;;6.85;;
29574;SDS011;16507;51.046;6.406;2023-05-23T01:37:53;7.40;;;6.90;;
29574;SDS011;16507;51.046;6.406;2023-05-23T01:40:20;7.15;;;6.45;;
29574;SDS011;16507;51.046;6.406;2023-05-23T01:42:47;7.00;;;6.50;;
29574;SDS011;16507;51.046;6.406;2023-05-23T01:45:13;6.93;;;6.30;;
29574;SDS011;16507;51.046;6.406;2023-05-23T01:47:40;10.15;;;6.72;;
29574;SDS011;16507;51.046;6.406;2023-05-23T01:50:07;7.13;;;6.50;;
29574;SDS011;16507;51.046;6.406;2023-05-23T01:52:34;7.05;;;6.43;;
29574;SDS011;16507;51.046;6.406;2023-05-23T01:55:01;8.32;;;7.57;;
29574;SDS011;16507;51.046;6.406;2023-05-23T01:57:33;7.53;;;6.82;;
29574;SDS011;16507;51.046;6.406;2023-05-23T02:00:00;7.93;;;7.40;;
29574;SDS011;16507;51.046;6.406;2023-05-23T02:02:26;7.85;;;7.15;;
29574;SDS011;16507;51.046;6.406;2023-05-23T02:04:52;12.65;;;7.68;;
29574;SDS011;16507;51.046;6.406;2023-05-23T02:07:18;7.95;;;7.32;;
29574;SDS011;16507;51.046;6.406;2023-05-23T02:09:47;6.95;;;6.43;;
29574;SDS011;16507;51.046;6.406;2023-05-23T02:12:13;8.50;;;6.53;;
29574;SDS011;16507;51.046;6.406;2023-05-23T02:14:39;7.68;;;6.97;;
29574;SDS011;16507;51.046;6.406;2023-05-23T02:17:06;7.97;;;7.25;;
29574;SDS011;16507;51.046;6.406;2023-05-23T02:19:34;7.22;;;6.30;;
29574;SDS011;16507;51.046;6.406;2023-05-23T02:22:01;7.80;;;7.10;;
29574;SDS011;16507;51.046;6.406;2023-05-23T02:24:27;8.77;;;7.53;;
29574;SDS011;16507;51.046;6.406;2023-05-23T02:26:53;9.70;;;7.45;;
29574;SDS011;16507;51.046;6.406;2023-05-23T02:29:19;6.95;;;6.35;;
29574;SDS011;16507;51.046;6.406;2023-05-23T02:31:44;7.30;;;6.55;;
29574;SDS011;16507;51.046;6.406;2023-05-23T02:34:10;6.82;;;6.18;;
29574;SDS011;16507;51.046;6.406;2023-05-23T02:36:36;10.95;;;6.47;;
29574;SDS011;16507;51.046;6.406;2023-05-23T02:39:03;6.45;;;5.95;;
29574;SDS011;16507;51.046;6.406;2023-05-23T02:41:29;5.88;;;5.43;;
29574;SDS011;16507;51.046;6.406;2023-05-23T02:43:55;7.22;;;6.25;;
29574;SDS011;16507;51.046;6.406;2023-05-23T02:46:21;9.52;;;6.53;;
29574;SDS011;16507;51.046;6.406;2023-05-23T02:48:47;6.93;;;6.32;;
29574;SDS011;16507;51.046;6.406;2023-05-23T02:51:12;8.07;;;7.35;;
29574;SDS011;16507;51.046;6.406;2023-05-23T02:53:38;7.78;;;7.03;;
29574;SDS011;16507;51.046;6.406;2023-05-23T02:56:04;8.63;;;7.90;;
29574;SDS011;16507;51.046;6.406;2023-05-23T02:58:32;9.32;;;8.43;;
29574;SDS011;16507;51.046;6.406;2023-05-23T03:01:00;9.13;;;8.23;;
29574;SDS011;16507;51.046;6.406;2023-05-23T03:03:26;11.98;;;9.40;;
29574;SDS011;16507;51.046;6.406;2023-05-23T03:05:58;11.70;;;9.57;;
29574;SDS011;16507;51.046;6.406;2023-05-23T03:08:24;11.18;;;9.80;;
29574;SDS011;16507;51.046;6.406;2023-05-23T03:10:50;13.57;;;9.82;;
29574;SDS011;16507;51.046;6.406;2023-05-23T03:13:16;10.55;;;9.65;;
29574;SDS011;16507;51.046;6.406;2023-05-23T03:15:42;11.98;;;9.27;;
29574;SDS011;16507;51.046;6.406;2023-05-23T03:18:08;10.27;;;8.65;;
29574;SDS011;16507;51.046;6.406;2023-05-23T03:20:34;11.35;;;8.93;;
29574;SDS011;16507;51.046;6.406;2023-05-23T03:23:00;15.07;;;8.57;;
29574;SDS011;16507;51.046;6.406;2023-05-23T03:25:26;10.98;;;7.68;;
29574;SDS011;16507;51.046;6.406;2023-05-23T03:27:51;9.93;;;8.40;;
29574;SDS011;16507;51.046;6.406;2023-05-23T03:30:17;8.77;;;7.97;;
29574;SDS011;16507;51.046;6.406;2023-05-23T03:32:43;8.13;;;7.47;;
29574;SDS011;16507;51.046;6.406;2023-05-23T03:35:08;7.53;;;6.93;;
29574;SDS011;16507;51.046;6.406;2023-05-23T03:37:34;9.52;;;7.35;;
29574;SDS011;16507;51.046;6.406;2023-05-23T03:39:59;9.25;;;6.85;;
29574;SDS011;16507;51.046;6.406;2023-05-23T03:42:26;8.85;;;7.88;;
29574;SDS011;16507;51.046;6.406;2023-05-23T03:44:52;8.07;;;7.15;;
29574;SDS011;16507;51.046;6.406;2023-05-23T03:47:18;10.00;;;7.80;;
29574;SDS011;16507;51.046;6.406;2023-05-23T03:49:43;11.27;;;7.90;;
29574;SDS011;16507;51.046;6.406;2023-05-23T03:52:09;9.20;;;7.35;;
29574;SDS011;16507;51.046;6.406;2023-05-23T03:54:35;8.90;;;7.63;;
29574;SDS011;16507;51.046;6.406;2023-05-23T03:57:01;9.77;;;7.20;;
29574;SDS011;16507;51.046;6.406;2023-05-23T03:59:27;8.68;;;7.38;;
29574;SDS011;16507;51.046;6.406;2023-05-23T04:01:53;8.23;;;7.35;;
29574;SDS011;16507;51.046;6.406;2023-05-23T04:04:19;11.23;;;8.15;;
29574;SDS011;16507;51.046;6.406;2023-05-23T04:06:45;11.85;;;7.93;;
29574;SDS011;16507;51.046;6.406;2023-05-23T04:09:11;9.93;;;8.40;;
29574;SDS011;16507;51.046;6.406;2023-05-23T04:11:38;12.43;;;8.20;;
29574;SDS011;16507;51.046;6.406;2023-05-23T04:14:04;8.40;;;7.07;;
29574;SDS011;16507;51.046;6.406;2023-05-23T04:16:29;12.18;;;8.18;;
29574;SDS011;16507;51.046;6.406;2023-05-23T04:18:57;11.32;;;7.63;;
29574;SDS011;16507;51.046;6.406;2023-05-23T04:21:23;12.85;;;7.70;;
29574;SDS011;16507;51.046;6.406;2023-05-23T04:23:49;11.90;;;8.55;;
29574;SDS011;16507;51.046;6.406;2023-05-23T04:26:14;12.43;;;7.82;;
29574;SDS011;16507;51.046;6.406;2023-05-23T04:28:40;8.85;;;7.93;;
29574;SDS011;16507;51.046;6.406;2023-05-23T04:31:10;13.82;;;8.23;;
29574;SDS011;16507;51.046;6.406;2023-05-23T04:33:36;14.68;;;8.38;;
29574;SDS011;16507;51.046;6.406;2023-05-23T04:36:02;12.93;;;9.98;;
29574;SDS011;16507;51.046;6.406;2023-05-23T04:38:28;14.32;;;9.70;;
29574;SDS011;16507;51.046;6.406;2023-05-23T04:40:54;11.15;;;9.30;;
29574;SDS011;16507;51.046;6.406;2023-05-23T04:43:19;12.25;;;9.32;;
29574;SDS011;16507;51.046;6.406;2023-05-23T04:45:46;9.88;;;7.82;;
29574;SDS011;16507;51.046;6.406;2023-05-23T04:48:14;11.38;;;8.48;;
29574;SDS011;16507;51.046;6.406;2023-05-23T04:50:41;15.50;;;8.95;;
29574;SDS011;16507;51.046;6.406;2023-05-23T04:53:07;14.70;;;7.80;;
29574;SDS011;16507;51.046;6.406;2023-05-23T04:55:33;13.85;;;8.18;;
29574;SDS011;16507;51.046;6.406;2023-05-23T04:57:59;13.20;;;8.82;;
29574;SDS011;16507;51.046;6.406;2023-05-23T05:00:25;12.13;;;8.85;;
29574;SDS011;16507;51.046;6.406;2023-05-23T05:02:50;11.65;;;9.15;;
29574;SDS011;16507;51.046;6.406;2023-05-23T05:05:16;14.85;;;9.25;;
29574;SDS011;16507;51.046;6.406;2023-05-23T05:07:42;11.18;;;8.57;;
29574;SDS011;16507;51.046;6.406;2023-05-23T05:10:08;10.13;;;8.32;;
29574;SDS011;16507;51.046;6.406;2023-05-23T05:12:40;9.88;;;7.63;;
29574;SDS011;16507;51.046;6.406;2023-05-23T05:15:10;8.60;;;7.90;;
29574;SDS011;16507;51.046;6.406;2023-05-23T05:17:43;15.45;;;8.50;;
29574;SDS011;16507;51.046;6.406;2023-05-23T05:20:09;12.90;;;8.52;;
29574;SDS011;16507;51.046;6.406;2023-05-23T05:22:38;14.07;;;9.18;;
29574;SDS011;16507;51.046;6.406;2023-05-23T05:25:08;14.70;;;8.73;;
29574;SDS011;16507;51.046;6.406;2023-05-23T05:27:35;10.65;;;8.23;;
29574;SDS011;16507;51.046;6.406;2023-05-23T05:30:07;10.65;;;8.73;;
29574;SDS011;16507;51.046;6.406;2023-05-23T05:32:33;11.35;;;8.98;;
29574;SDS011;16507;51.046;6.406;2023-05-23T05:34:59;12.50;;;8.93;;
29574;SDS011;16507;51.046;6.406;2023-05-23T05:37:25;15.00;;;9.45;;
29574;SDS011;16507;51.046;6.406;2023-05-23T05:39:50;11.73;;;9.27;;
29574;SDS011;16507;51.046;6.406;2023-05-23T05:42:18;14.50;;;9.10;;
29574;SDS011;16507;51.046;6.406;2023-05-23T05:44:44;12.60;;;8.43;;
29574;SDS011;16507;51.046;6.406;2023-05-23T05:47:10;11.10;;;7.93;;
29574;SDS011;16507;51.046;6.406;2023-05-23T05:49:35;10.45;;;8.30;;
29574;SDS011;16507;51.046;6.406;2023-05-23T05:52:01;12.45;;;8.23;;
29574;SDS011;16507;51.046;6.406;2023-05-23T05:54:26;9.48;;;7.40;;
29574;SDS011;16507;51.046;6.406;2023-05-23T05:56:53;8.15;;;7.35;;
29574;SDS011;16507;51.046;6.406;2023-05-23T05:59:19;16.02;;;7.28;;
29574;SDS011;16507;51.046;6.406;2023-05-23T06:01:45;15.85;;;8.05;;
29574;SDS011;16507;51.046;6.406;2023-05-23T06:04:10;8.27;;;7.43;;
29574;SDS011;16507;51.046;6.406;2023-05-23T06:06:36;11.68;;;7.43;;
29574;SDS011;16507;51.046;6.406;2023-05-23T06:09:02;7.82;;;6.72;;
29574;SDS011;16507;51.046;6.406;2023-05-23T06:11:27;14.02;;;7.25;;
29574;SDS011;16507;51.046;6.406;2023-05-23T06:13:53;8.05;;;6.88;;
29574;SDS011;16507;51.046;6.406;2023-05-23T06:16:19;11.25;;;6.43;;
29574;SDS011;16507;51.046;6.406;2023-05-23T06:18:44;11.48;;;7.20;;
29574;SDS011;16507;51.046;6.406;2023-05-23T06:21:10;7.28;;;6.57;;
29574;SDS011;16507;51.046;6.406;2023-05-23T06:23:35;7.25;;;6.57;;
29574;SDS011;16507;51.046;6.406;2023-05-23T06:26:01;12.07;;;7.65;;
29574;SDS011;16507;51.046;6.406;2023-05-23T06:28:26;7.82;;;6.22;;
29574;SDS011;16507;51.046;6.406;2023-05-23T06:30:52;6.70;;;5.97;;
29574;SDS011;16507;51.046;6.406;2023-05-23T06:33:18;9.98;;;7.45;;
29574;SDS011;16507;51.046;6.406;2023-05-23T06:35:44;9.23;;;7.05;;
29574;SDS011;16507;51.046;6.406;2023-05-23T06:38:09;9.30;;;6.03;;
29574;SDS011;16507;51.046;6.406;2023-05-23T06:40:35;9.02;;;6.38;;
29574;SDS011;16507;51.046;6.406;2023-05-23T06:43:01;15.13;;;6.72;;
29574;SDS011;16507;51.046;6.406;2023-05-23T06:45:27;12.18;;;7.55;;
29574;SDS011;16507;51.046;6.406;2023-05-23T06:47:52;14.15;;;7.50;;
29574;SDS011;16507;51.046;6.406;2023-05-23T06:50:18;11.43;;;7.75;;
29574;SDS011;16507;51.046;6.406;2023-05-23T06:52:46;11.05;;;8.18;;
29574;SDS011;16507;51.046;6.406;2023-05-23T06:55:12;11.57;;;7.45;;
29574;SDS011;16507;51.046;6.406;2023-05-23T06:57:42;9.27;;;7.28;;
29574;SDS011;16507;51.046;6.406;2023-05-23T07:00:11;13.13;;;7.97;;
29574;SDS011;16507;51.046;6.406;2023-05-23T07:02:37;19.40;;;7.32;;
29574;SDS011;16507;51.046;6.406;2023-05-23T07:05:03;12.18;;;7.70;;
29574;SDS011;16507;51.046;6.406;2023-05-23T07:07:29;11.52;;;7.70;;
29574;SDS011;16507;51.046;6.406;2023-05-23T07:09:55;12.55;;;7.65;;
29574;SDS011;16507;51.046;6.406;2023-05-23T07:12:20;10.30;;;7.88;;
29574;SDS011;16507;51.046;6.406;2023-05-23T07:14:46;11.10;;;7.72;;
29574;SDS011;16507;51.046;6.406;2023-05-23T07:17:11;9.10;;;8.05;;
29574;SDS011;16507;51.046;6.406;2023-05-23T07:19:37;11.55;;;8.23;;
29574;SDS011;16507;51.046;6.406;2023-05-23T07:22:03;12.60;;;8.18;;
29574;SDS011;16507;51.046;6.406;2023-05-23T07:24:28;15.65;;;8.50;;
29574;SDS011;16507;51.046;6.406;2023-05-23T07:26:54;12.30;;;7.80;;
29574;SDS011;16507;51.046;6.406;2023-05-23T07:29:20;10.55;;;7.97;;
29574;SDS011;16507;51.046;6.406;2023-05-23T07:31:45;10.85;;;8.70;;
29574;SDS011;16507;51.046;6.406;2023-05-23T07:34:11;15.07;;;9.00;;
29574;SDS011;16507;51.046;6.406;2023-05-23T07:36:37;13.10;;;8.50;;
29574;SDS011;16507;51.046;6.406;2023-05-23T07:39:04;11.88;;;8.80;;
29574;SDS011;16507;51.046;6.406;2023-05-23T07:41:31;16.90;;;9.13;;
29574;SDS011;16507;51.046;6.406;2023-05-23T07:43:56;13.20;;;10.18;;
29574;SDS011;16507;51.046;6.406;2023-05-23T07:46:22;17.15;;;9.88;;
29574;SDS011;16507;51.046;6.406;2023-05-23T07:48:48;18.27;;;9.60;;
29574;SDS011;16507;51.046;6.406;2023-05-23T07:51:13;23.45;;;11.00;;
29574;SDS011;16507;51.046;6.406;2023-05-23T07:53:39;17.90;;;10.23;;
29574;SDS011;16507;51.046;6.406;2023-05-23T07:56:05;19.58;;;10.60;;
29574;SDS011;16507;51.046;6.406;2023-05-23T07:58:31;18.05;;;9.90;;
29574;SDS011;16507;51.046;6.406;2023-05-23T08:00:57;16.65;;;9.48;;
29574;SDS011;16507;51.046;6.406;2023-05-23T08:03:23;17.95;;;10.05;;
29574;SDS011;16507;51.046;6.406;2023-05-23T08:05:49;14.30;;;8.07;;
29574;SDS011;16507;51.046;6.406;2023-05-23T08:08:15;20.60;;;8.73;;
29574;SDS011;16507;51.046;6.406;2023-05-23T08:10:41;18.25;;;9.13;;
29574;SDS011;16507;51.046;6.406;2023-05-23T08:13:08;15.73;;;8.75;;
29574;SDS011;16507;51.046;6.406;2023-05-23T08:15:34;11.45;;;8.60;;
29574;SDS011;16507;51.046;6.406;2023-05-23T08:17:59;16.95;;;9.02;;
29574;SDS011;16507;51.046;6.406;2023-05-23T08:20:25;15.52;;;8.25;;
29574;SDS011;16507;51.046;6.406;2023-05-23T08:22:58;17.13;;;8.77;;
29574;SDS011;16507;51.046;6.406;2023-05-23T08:25:25;14.65;;;6.47;;
29574;SDS011;16507;51.046;6.406;2023-05-23T08:27:54;15.48;;;7.97;;
29574;SDS011;16507;51.046;6.406;2023-05-23T08:30:21;14.05;;;8.00;;
29574;SDS011;16507;51.046;6.406;2023-05-23T08:32:47;13.63;;;7.32;;
29574;SDS011;16507;51.046;6.406;2023-05-23T08:35:13;17.35;;;8.68;;
29574;SDS011;16507;51.046;6.406;2023-05-23T08:37:38;15.48;;;8.52;;
29574;SDS011;16507;51.046;6.406;2023-05-23T08:40:05;27.55;;;9.68;;
29574;SDS011;16507;51.046;6.406;2023-05-23T08:42:36;22.42;;;9.25;;
29574;SDS011;16507;51.046;6.406;2023-05-23T08:45:01;22.52;;;9.57;;
29574;SDS011;16507;51.046;6.406;2023-05-23T08:47:27;23.85;;;7.85;;
29574;SDS011;16507;51.046;6.406;2023-05-23T08:49:57;18.33;;;9.20;;
29574;SDS011;16507;51.046;6.406;2023-05-23T08:52:24;22.58;;;8.63;;
29574;SDS011;16507;51.046;6.406;2023-05-23T08:54:51;21.67;;;9.15;;
29574;SDS011;16507;51.046;6.406;2023-05-23T08:57:17;23.10;;;9.50;;
29574;SDS011;16507;51.046;6.406;2023-05-23T08:59:42;18.77;;;9.50;;
29574;SDS011;16507;51.046;6.406;2023-05-23T09:02:09;11.07;;;8.00;;
29574;SDS011;16507;51.046;6.406;2023-05-23T09:04:38;18.17;;;8.32;;
29574;SDS011;16507;51.046;6.406;2023-05-23T09:07:03;16.67;;;8.65;;
29574;SDS011;16507;51.046;6.406;2023-05-23T09:09:30;20.38;;;8.27;;
29574;SDS011;16507;51.046;6.406;2023-05-23T09:11:56;14.45;;;7.68;;
29574;SDS011;16507;51.046;6.406;2023-05-23T09:14:23;15.30;;;6.75;;
29574;SDS011;16507;51.046;6.406;2023-05-23T09:16:50;13.00;;;6.38;;
29574;SDS011;16507;51.046;6.406;2023-05-23T09:19:16;10.05;;;6.13;;
29574;SDS011;16507;51.046;6.406;2023-05-23T09:21:43;13.75;;;6.53;;
29574;SDS011;16507;51.046;6.406;2023-05-23T09:24:09;19.15;;;7.10;;
29574;SDS011;16507;51.046;6.406;2023-05-23T09:26:36;15.32;;;6.70;;
29574;SDS011;16507;51.046;6.406;2023-05-23T09:29:04;11.57;;;5.85;;
29574;SDS011;16507;51.046;6.406;2023-05-23T09:31:31;16.98;;;6.15;;
29574;SDS011;16507;51.046;6.406;2023-05-23T09:33:57;9.10;;;5.55;;
29574;SDS011;16507;51.046;6.406;2023-05-23T09:36:25;13.75;;;5.50;;
29574;SDS011;16507;51.046;6.406;2023-05-23T09:39:02;9.40;;;5.65;;
29574;SDS011;16507;51.046;6.406;2023-05-23T09:41:29;11.70;;;6.57;;
29574;SDS011;16507;51.046;6.406;2023-05-23T09:43:57;14.52;;;6.70;;
29574;SDS011;16507;51.046;6.406;2023-05-23T09:46:27;11.32;;;6.13;;
29574;SDS011;16507;51.046;6.406;2023-05-23T09:48:54;18.52;;;6.72;;
29574;SDS011;16507;51.046;6.406;2023-05-23T09:51:21;16.13;;;6.70;;
29574;SDS011;16507;51.046;6.406;2023-05-23T09:53:48;12.48;;;5.88;;
29574;SDS011;16507;51.046;6.406;2023-05-23T09:56:17;9.48;;;5.25;;
29574;SDS011;16507;51.046;6.406;2023-05-23T09:58:45;11.65;;;5.65;;
29574;SDS011;16507;51.046;6.406;2023-05-23T10:01:12;10.40;;;4.85;;
29574;SDS011;16507;51.046;6.406;2023-05-23T10:03:46;12.70;;;4.90;;
29574;SDS011;16507;51.046;6.406;2023-05-23T10:06:22;12.63;;;5.03;;
29574;SDS011;16507;51.046;6.406;2023-05-23T10:08:56;14.50;;;5.32;;
29574;SDS011;16507;51.046;6.406;2023-05-23T10:17:07;8.75;;;5.53;;
29574;SDS011;16507;51.046;6.406;2023-05-23T10:22:17;11.93;;;5.15;;
29574;SDS011;16507;51.046;6.406;2023-05-23T10:24:44;10.15;;;5.32;;
29574;SDS011;16507;51.046;6.406;2023-05-23T10:27:12;9.63;;;5.45;;
29574;SDS011;16507;51.046;6.406;2023-05-23T10:29:38;7.07;;;4.80;;
29574;SDS011;16507;51.046;6.406;2023-05-23T10:32:04;10.48;;;5.18;;
29574;SDS011;16507;51.046;6.406;2023-05-23T10:34:32;13.52;;;5.60;;
29574;SDS011;16507;51.046;6.406;2023-05-23T10:40:04;12.75;;;5.47;;
29574;SDS011;16507;51.046;6.406;2023-05-23T10:45:20;12.00;;;6.03;;
29574;SDS011;16507;51.046;6.406;2023-05-23T10:47:48;8.55;;;4.80;;
29574;SDS011;16507;51.046;6.406;2023-05-23T10:53:02;14.43;;;5.13;;
29574;SDS011;16507;51.046;6.406;2023-05-23T10:55:33;10.82;;;5.03;;
29574;SDS011;16507;51.046;6.406;2023-05-23T10:58:14;11.77;;;5.30;;
29574;SDS011;16507;51.046;6.406;2023-05-23T11:03:17;8.63;;;5.40;;
29574;SDS011;16507;51.046;6.406;2023-05-23T11:05:52;14.02;;;5.03;;
29574;SDS011;16507;51.046;6.406;2023-05-23T11:08:18;7.60;;;6.05;;
29574;SDS011;16507;51.046;6.406;2023-05-23T11:13:22;11.13;;;5.70;;
29574;SDS011;16507;51.046;6.406;2023-05-23T11:15:48;7.90;;;5.03;;
29574;SDS011;16507;51.046;6.406;2023-05-23T11:18:23;8.88;;;4.78;;
29574;SDS011;16507;51.046;6.406;2023-05-23T11:20:52;9.82;;;5.32;;
29574;SDS011;16507;51.046;6.406;2023-05-23T11:23:18;7.07;;;4.60;;
29574;SDS011;16507;51.046;6.406;2023-05-23T11:25:49;7.15;;;4.65;;
29574;SDS011;16507;51.046;6.406;2023-05-23T11:28:16;5.95;;;4.40;;
29574;SDS011;16507;51.046;6.406;2023-05-23T11:30:42;6.47;;;4.53;;
29574;SDS011;16507;51.046;6.406;2023-05-23T11:33:12;6.40;;;3.85;;
29574;SDS011;16507;51.046;6.406;2023-05-23T11:35:39;9.10;;;4.53;;
29574;SDS011;16507;51.046;6.406;2023-05-23T11:38:05;5.32;;;4.13;;
29574;SDS011;16507;51.046;6.406;2023-05-23T11:40:32;6.78;;;4.65;;
29574;SDS011;16507;51.046;6.406;2023-05-23T11:43:00;6.68;;;3.95;;
29574;SDS011;16507;51.046;6.406;2023-05-23T11:45:31;8.40;;;4.10;;
29574;SDS011;16507;51.046;6.406;2023-05-23T11:48:03;3.67;;;3.05;;
29574;SDS011;16507;51.046;6.406;2023-05-23T11:50:30;4.03;;;3.35;;
29574;SDS011;16507;51.046;6.406;2023-05-23T11:52:55;6.25;;;3.13;;
29574;SDS011;16507;51.046;6.406;2023-05-23T11:55:21;7.05;;;3.63;;
29574;SDS011;16507;51.046;6.406;2023-05-23T11:57:47;6.38;;;3.53;;
29574;SDS011;16507;51.046;6.406;2023-05-23T12:00:14;9.60;;;4.20;;
29574;SDS011;16507;51.046;6.406;2023-05-23T12:02:41;9.93;;;4.55;;
29574;SDS011;16507;51.046;6.406;2023-05-23T12:05:08;7.22;;;4.65;;
29574;SDS011;16507;51.046;6.406;2023-05-23T12:07:38;7.72;;;4.35;;
29574;SDS011;16507;51.046;6.406;2023-05-23T12:10:09;8.00;;;4.00;;
29574;SDS011;16507;51.046;6.406;2023-05-23T12:12:35;11.52;;;2.78;;
29574;SDS011;16507;51.046;6.406;2023-05-23T12:15:01;3.67;;;2.83;;
29574;SDS011;16507;51.046;6.406;2023-05-23T12:17:26;10.30;;;2.60;;
29574;SDS011;16507;51.046;6.406;2023-05-23T12:19:52;5.68;;;2.70;;
29574;SDS011;16507;51.046;6.406;2023-05-23T12:22:21;4.07;;;2.40;;
29574;SDS011;16507;51.046;6.406;2023-05-23T12:24:49;3.95;;;2.47;;
29574;SDS011;16507;51.046;6.406;2023-05-23T12:27:17;4.35;;;2.75;;
29574;SDS011;16507;51.046;6.406;2023-05-23T12:29:48;4.60;;;2.75;;
29574;SDS011;16507;51.046;6.406;2023-05-23T12:32:16;7.15;;;2.28;;
29574;SDS011;16507;51.046;6.406;2023-05-23T12:34:41;5.20;;;2.65;;
29574;SDS011;16507;51.046;6.406;2023-05-23T12:37:07;10.25;;;2.70;;
29574;SDS011;16507;51.046;6.406;2023-05-23T12:39:33;7.05;;;2.78;;
29574;SDS011;16507;51.046;6.406;2023-05-23T12:42:10;3.22;;;2.22;;
29574;SDS011;16507;51.046;6.406;2023-05-23T12:44:35;6.65;;;2.33;;
29574;SDS011;16507;51.046;6.406;2023-05-23T12:47:01;6.88;;;2.05;;
29574;SDS011;16507;51.046;6.406;2023-05-23T12:49:28;6.85;;;2.10;;
29574;SDS011;16507;51.046;6.406;2023-05-23T12:51:53;8.43;;;2.33;;
29574;SDS011;16507;51.046;6.406;2023-05-23T12:54:19;4.00;;;2.45;;
29574;SDS011;16507;51.046;6.406;2023-05-23T12:56:45;11.68;;;3.10;;
29574;SDS011;16507;51.046;6.406;2023-05-23T12:59:11;6.07;;;2.50;;
29574;SDS011;16507;51.046;6.406;2023-05-23T13:01:36;7.85;;;2.45;;
29574;SDS011;16507;51.046;6.406;2023-05-23T13:04:02;10.60;;;2.47;;
29574;SDS011;16507;51.046;6.406;2023-05-23T13:06:30;4.85;;;2.15;;
29574;SDS011;16507;51.046;6.406;2023-05-23T13:08:57;9.00;;;2.78;;
29574;SDS011;16507;51.046;6.406;2023-05-23T13:11:23;7.57;;;2.40;;
29574;SDS011;16507;51.046;6.406;2023-05-23T13:13:49;11.05;;;1.90;;
29574;SDS011;16507;51.046;6.406;2023-05-23T13:16:15;6.70;;;2.30;;
29574;SDS011;16507;51.046;6.406;2023-05-23T13:18:41;14.75;;;2.47;;
29574;SDS011;16507;51.046;6.406;2023-05-23T13:21:07;5.85;;;2.10;;
29574;SDS011;16507;51.046;6.406;2023-05-23T13:23:35;9.23;;;2.55;;
29574;SDS011;16507;51.046;6.406;2023-05-23T13:26:02;11.32;;;3.10;;
29574;SDS011;16507;51.046;6.406;2023-05-23T13:28:28;3.35;;;1.88;;
29574;SDS011;16507;51.046;6.406;2023-05-23T13:30:54;7.07;;;2.72;;
29574;SDS011;16507;51.046;6.406;2023-05-23T13:33:20;7.00;;;2.25;;
29574;SDS011;16507;51.046;6.406;2023-05-23T13:35:48;7.47;;;2.40;;
29574;SDS011;16507;51.046;6.406;2023-05-23T13:38:16;8.05;;;2.92;;
29574;SDS011;16507;51.046;6.406;2023-05-23T13:40:42;11.45;;;2.50;;
29574;SDS011;16507;51.046;6.406;2023-05-23T13:43:08;10.02;;;2.63;;
29574;SDS011;16507;51.046;6.406;2023-05-23T13:45:34;5.90;;;1.98;;
29574;SDS011;16507;51.046;6.406;2023-05-23T13:47:59;7.78;;;2.72;;
29574;SDS011;16507;51.046;6.406;2023-05-23T13:50:25;6.95;;;2.55;;
29574;SDS011;16507;51.046;6.406;2023-05-23T13:52:51;7.05;;;2.40;;
29574;SDS011;16507;51.046;6.406;2023-05-23T13:55:16;7.20;;;2.58;;
29574;SDS011;16507;51.046;6.406;2023-05-23T13:57:42;8.00;;;2.40;;
29574;SDS011;16507;51.046;6.406;2023-05-23T14:00:11;8.27;;;2.22;;
29574;SDS011;16507;51.046;6.406;2023-05-23T14:02:37;11.77;;;2.78;;
29574;SDS011;16507;51.046;6.406;2023-05-23T14:05:03;9.38;;;2.40;;
29574;SDS011;16507;51.046;6.406;2023-05-23T14:07:29;5.22;;;1.98;;
29574;SDS011;16507;51.046;6.406;2023-05-23T14:09:55;7.10;;;2.42;;
29574;SDS011;16507;51.046;6.406;2023-05-23T14:12:21;6.38;;;2.60;;
29574;SDS011;16507;51.046;6.406;2023-05-23T14:14:47;7.68;;;2.58;;
29574;SDS011;16507;51.046;6.406;2023-05-23T14:17:15;8.30;;;2.35;;
29574;SDS011;16507;51.046;6.406;2023-05-23T14:19:41;9.70;;;2.33;;
29574;SDS011;16507;51.046;6.406;2023-05-23T14:22:07;11.63;;;2.42;;
29574;SDS011;16507;51.046;6.406;2023-05-23T14:24:32;10.02;;;2.70;;
29574;SDS011;16507;51.046;6.406;2023-05-23T14:26:58;9.30;;;2.25;;
29574;SDS011;16507;51.046;6.406;2023-05-23T14:29:24;9.95;;;2.90;;
29574;SDS011;16507;51.046;6.406;2023-05-23T14:31:50;8.27;;;2.47;;
29574;SDS011;16507;51.046;6.406;2023-05-23T14:34:15;7.53;;;2.85;;
29574;SDS011;16507;51.046;6.406;2023-05-23T14:36:41;6.40;;;2.50;;
29574;SDS011;16507;51.046;6.406;2023-05-23T14:39:07;8.35;;;2.58;;
29574;SDS011;16507;51.046;6.406;2023-05-23T14:41:33;9.00;;;2.75;;
29574;SDS011;16507;51.046;6.406;2023-05-23T14:43:59;10.02;;;2.33;;
29574;SDS011;16507;51.046;6.406;2023-05-23T14:46:24;11.02;;;2.70;;
29574;SDS011;16507;51.046;6.406;2023-05-23T14:48:50;13.15;;;2.55;;
29574;SDS011;16507;51.046;6.406;2023-05-23T14:51:16;10.73;;;2.55;;
29574;SDS011;16507;51.046;6.406;2023-05-23T14:53:44;7.40;;;2.78;;
29574;SDS011;16507;51.046;6.406;2023-05-23T14:56:10;8.63;;;2.55;;
29574;SDS011;16507;51.046;6.406;2023-05-23T14:58:35;7.90;;;2.33;;
29574;SDS011;16507;51.046;6.406;2023-05-23T15:01:04;11.13;;;2.67;;
29574;SDS011;16507;51.046;6.406;2023-05-23T15:03:30;6.88;;;2.70;;
29574;SDS011;16507;51.046;6.406;2023-05-23T15:05:55;8.02;;;2.40;;